sensor_id;sensor_type;location;lat;lon;timestamp;P1;P2;P0
68341;PMS7003;55668;52.310;21.066;2022-07-22T00:00:40;13;13;
68341;PMS7003;55668;52.310;21.066;2022-07-22T00:17:21;16;16;
68341;PMS7003;55668;52.310;21.066;2022-07-22T00:34:02;13;13;
68341;PMS7003;55668;52.310;21.066;2022-07-22T00:45:27;15;13;
68341;PMS7003;55668;52.310;21.066;2022-07-22T01:04:34;18;16;
68341;PMS7003;55668;52.310;21.066;2022-07-22T01:16:39;15;15;
68341;PMS7003;55668;52.310;21.066;2022-07-22T01:51:19;17;17;
68341;PMS7003;55668;52.310;21.066;2022-07-22T02:02:10;17;15;
68341;PMS7003;55668;52.310;21.066;2022-07-22T02:17:33;17;17;
68341;PMS7003;55668;52.310;21.066;2022-07-22T02:32:50;17;17;
68341;PMS7003;55668;52.310;21.066;2022-07-22T03:05:16;17;16;
68341;PMS7003;55668;52.310;21.066;2022-07-22T03:24:01;17;17;
68341;PMS7003;55668;52.310;21.066;2022-07-22T03:50:56;16;16;
68341;PMS7003;55668;52.310;21.066;2022-07-22T04:05:55;17;17;
68341;PMS7003;55668;52.310;21.066;2022-07-22T04:23:20;15;15;
68341;PMS7003;55668;52.310;21.066;2022-07-22T04:37:22;18;18;
68341;PMS7003;55668;52.310;21.066;2022-07-22T04:53:37;15;15;
68341;PMS7003;55668;52.310;21.066;2022-07-22T05:10:06;16;16;
68341;PMS7003;55668;52.310;21.066;2022-07-22T05:24:22;17;17;
68341;PMS7003;55668;52.310;21.066;2022-07-22T05:37:15;16;16;
68341;PMS7003;55668;52.310;21.066;2022-07-22T05:52:31;15;15;
68341;PMS7003;55668;52.310;21.066;2022-07-22T06:11:00;17;17;
68341;PMS7003;55668;52.310;21.066;2022-07-22T06:23:58;15;15;
68341;PMS7003;55668;52.310;21.066;2022-07-22T06:54:44;11;11;
68341;PMS7003;55668;52.310;21.066;2022-07-22T07:18:24;9;9;
68341;PMS7003;55668;52.310;21.066;2022-07-22T07:49:49;14;14;
68341;PMS7003;55668;52.310;21.066;2022-07-22T08:04:30;19;18;
68341;PMS7003;55668;52.310;21.066;2022-07-22T08:49:59;16;16;
68341;PMS7003;55668;52.310;21.066;2022-07-22T09:06:30;18;18;
68341;PMS7003;55668;52.310;21.066;2022-07-22T09:23:09;21;21;
68341;PMS7003;55668;52.310;21.066;2022-07-22T09:35:11;25;25;
68341;PMS7003;55668;52.310;21.066;2022-07-22T09:51:24;22;22;
68341;PMS7003;55668;52.310;21.066;2022-07-22T10:06:38;20;20;
68341;PMS7003;55668;52.310;21.066;2022-07-22T10:24:59;19;19;
68341;PMS7003;55668;52.310;21.066;2022-07-22T10:39:31;20;20;
68341;PMS7003;55668;52.310;21.066;2022-07-22T10:52:17;19;19;
68341;PMS7003;55668;52.310;21.066;2022-07-22T11:10:53;17;17;
68341;PMS7003;55668;52.310;21.066;2022-07-22T11:24:37;17;17;
68341;PMS7003;55668;52.310;21.066;2022-07-22T11:38:45;18;16;
68341;PMS7003;55668;52.310;21.066;2022-07-22T11:53:58;16;16;
68341;PMS7003;55668;52.310;21.066;2022-07-22T12:10:31;14;14;
68341;PMS7003;55668;52.310;21.066;2022-07-22T12:25:14;16;16;
68341;PMS7003;55668;52.310;21.066;2022-07-22T12:55:21;14;14;
68341;PMS7003;55668;52.310;21.066;2022-07-22T13:10:18;13;13;
68341;PMS7003;55668;52.310;21.066;2022-07-22T13:27:53;16;16;
68341;PMS7003;55668;52.310;21.066;2022-07-22T13:43:27;10;10;
68341;PMS7003;55668;52.310;21.066;2022-07-22T13:59:00;14;14;
68341;PMS7003;55668;52.310;21.066;2022-07-22T14:15:57;13;13;
68341;PMS7003;55668;52.310;21.066;2022-07-22T14:27:08;16;16;
68341;PMS7003;55668;52.310;21.066;2022-07-22T14:45:06;13;13;
68341;PMS7003;55668;52.310;21.066;2022-07-22T15:12:53;12;12;
68341;PMS7003;55668;52.310;21.066;2022-07-22T15:32:29;14;14;
68341;PMS7003;55668;52.310;21.066;2022-07-22T16:01:53;15;15;
68341;PMS7003;55668;52.310;21.066;2022-07-22T16:14:15;12;12;
68341;PMS7003;55668;52.310;21.066;2022-07-22T16:31:31;11;11;
68341;PMS7003;55668;52.310;21.066;2022-07-22T16:48:25;10;10;
68341;PMS7003;55668;52.310;21.066;2022-07-22T17:01:44;11;11;
68341;PMS7003;55668;52.310;21.066;2022-07-22T17:18:30;9;9;
68341;PMS7003;55668;52.310;21.066;2022-07-22T17:32:20;11;11;
68341;PMS7003;55668;52.310;21.066;2022-07-22T17:48:36;11;11;
68341;PMS7003;55668;52.310;21.066;2022-07-22T18:02:52;11;11;
68341;PMS7003;55668;52.310;21.066;2022-07-22T18:20:23;10;10;
68341;PMS7003;55668;52.310;21.066;2022-07-22T18:33:46;10;10;
68341;PMS7003;55668;52.310;21.066;2022-07-22T18:49:51;12;12;
68341;PMS7003;55668;52.310;21.066;2022-07-22T19:05:26;9;9;
68341;PMS7003;55668;52.310;21.066;2022-07-22T19:22:13;7;7;
68341;PMS7003;55668;52.310;21.066;2022-07-22T19:34:04;8;8;
68341;PMS7003;55668;52.310;21.066;2022-07-22T19:50:05;7;7;
68341;PMS7003;55668;52.310;21.066;2022-07-22T20:04:55;9;9;
68341;PMS7003;55668;52.310;21.066;2022-07-22T20:21:12;9;9;
68341;PMS7003;55668;52.310;21.066;2022-07-22T20:35:42;7;7;
68341;PMS7003;55668;52.310;21.066;2022-07-22T20:52:59;8;8;
68341;PMS7003;55668;52.310;21.066;2022-07-22T21:06:46;8;8;
68341;PMS7003;55668;52.310;21.066;2022-07-22T21:21:26;8;8;
68341;PMS7003;55668;52.310;21.066;2022-07-22T21:37:18;8;8;
68341;PMS7003;55668;52.310;21.066;2022-07-22T21:52:36;11;11;
68341;PMS7003;55668;52.310;21.066;2022-07-22T22:08:26;13;13;
68341;PMS7003;55668;52.310;21.066;2022-07-22T22:25:24;13;11;
68341;PMS7003;55668;52.310;21.066;2022-07-22T22:43:30;13;13;
68341;PMS7003;55668;52.310;21.066;2022-07-22T22:55:08;11;10;
68341;PMS7003;55668;52.310;21.066;2022-07-22T23:12:53;13;12;
68341;PMS7003;55668;52.310;21.066;2022-07-22T23:26:12;13;13;
68341;PMS7003;55668;52.310;21.066;2022-07-22T23:40:30;15;15;
68341;PMS7003;55668;52.310;21.066;2022-07-22T23:57:12;13;13;
